Vancouver, WA

3:37 AM PST on December 03, 2016 (GMT -0800)
Fircrest | | Change Station

Elev 256 ft 45.63 °N, 122.55 °W | Updated 8 minutes ago

Overcast
Overcast
44.4 °F
Feels Like 44 °F
N
0.0
Wind Variable Wind from South

Today
High -- | Low -- °F
--% Chance of Precip.
Yesterday
High -- | Low -- °F
Precip. -- in
Pressure 30.33 in
Visibility 10.0 miles
Clouds Mostly Cloudy 800 ft
Overcast 7000 ft
Windchill 44 °F
Dew Point 44 °F
Humidity 99%
Rainfall 0.02 in
Snow Depth Not available.
7:33 AM 4:27 PM
Waxing Crescent, 14% visible
SPECI KPDX 031100Z 00000KT 10SM BKN008 OVC070 08/06 A3033 RMK AO2 T00780061
Pressure 30.33 in
Visibility 10.0 miles
Clouds Mostly Cloudy 800 ft
Overcast 7000 ft
Windchill 44 °F
Dew Point 44 °F
Humidity 99%
Rainfall 0.02 in
Snow Depth Not available.
7:33 AM 4:27 PM
Waxing Crescent, 14% visible
SPECI KPDX 031100Z 00000KT 10SM BKN008 OVC070 08/06 A3033 RMK AO2 T00780061

10-Day Weather Forecast

Almanac

Astronomy

Dec. 03, 2016 Rise Set
Actual Time
Civil Twilight
Nautical Twilight
Astronomical Twilight
Moon
Length of Visible Light
Length of Day
Tomorrow will be .
, % of the Moon is Illuminated

Today's Extremes

State Highs State Lows

Community

WunderPhotos

Upload Photos

1,955,431 photos uploaded!

WunderBlog® & News

Nearby

Air Quality

  Air Quality AQ Index Pollutant
Not available.

Snow Depth

Station Depth Elevation

Earthquake Activity

City Distance Mag. Time & Date
Minimum magnitude displayed is 2.5.

Coastal Water Temperatures

Place Temperature

Stations

Nearby Weather Stations

Station Location Temp. Windchill Dew Point Humidity Wind Precip. Elev Updated Type
                   

Watches & Warnings

There are currently no watches in effect.